createdAt,value
2023-05-14T00:01:25.054Z,12.42
2023-05-14T00:04:27.600Z,12.44
2023-05-14T00:07:31.011Z,12.41
2023-05-14T00:10:33.793Z,12.44
2023-05-14T00:13:36.462Z,12.36
2023-05-14T00:16:38.959Z,12.33
2023-05-14T00:19:42.152Z,12.40
2023-05-14T00:22:44.722Z,12.37
2023-05-14T00:25:47.209Z,12.42
2023-05-14T00:28:49.695Z,12.41
2023-05-14T00:31:52.766Z,12.41
2023-05-14T00:34:55.726Z,12.42
2023-05-14T00:37:58.479Z,12.36
2023-05-14T00:41:01.212Z,12.42
2023-05-14T00:44:03.838Z,12.40
2023-05-14T00:47:06.918Z,12.34
2023-05-14T00:50:09.869Z,12.35
2023-05-14T00:53:12.589Z,12.32
2023-05-14T00:56:15.676Z,12.31
2023-05-14T00:59:18.671Z,12.31
2023-05-14T01:02:21.304Z,12.34
2023-05-14T01:05:23.955Z,12.41
2023-05-14T01:08:44.464Z,12.33
2023-05-14T01:12:17.228Z,12.28
2023-05-14T01:15:28.690Z,12.17
2023-05-14T01:18:31.339Z,12.14
2023-05-14T01:21:36.553Z,12.18
2023-05-14T01:24:39.142Z,12.18
2023-05-14T01:28:01.259Z,12.03
2023-05-14T01:31:17.525Z,12.00
2023-05-14T01:34:21.433Z,11.89
2023-05-14T01:37:24.098Z,11.90
2023-05-14T01:40:26.700Z,11.84
2023-05-14T01:43:29.522Z,11.73
2023-05-14T01:46:35.818Z,11.71
2023-05-14T01:49:38.372Z,11.77
2023-05-14T01:52:40.934Z,11.75
2023-05-14T01:55:43.457Z,11.79
2023-05-14T01:58:45.900Z,11.76
2023-05-14T02:01:48.444Z,11.76
2023-05-14T02:04:51.289Z,11.81
2023-05-14T02:07:53.646Z,11.83
2023-05-14T02:10:56.138Z,11.80
2023-05-14T02:14:00.775Z,11.79
2023-05-14T02:17:03.622Z,11.77
2023-05-14T02:20:07.135Z,11.77
2023-05-14T02:23:09.759Z,11.81
2023-05-14T02:26:12.761Z,11.76
2023-05-14T02:29:15.501Z,11.82
2023-05-14T02:32:18.259Z,11.88
2023-05-14T02:35:21.030Z,11.81
2023-05-14T02:38:23.855Z,11.80
2023-05-14T02:41:26.388Z,11.83
2023-05-14T02:44:29.181Z,11.89
2023-05-14T02:47:31.707Z,11.91
2023-05-14T02:50:34.285Z,11.92
2023-05-14T02:53:37.069Z,11.99
2023-05-14T02:56:39.396Z,11.97
2023-05-14T02:59:41.721Z,11.91
2023-05-14T03:02:44.820Z,11.85
2023-05-14T03:05:47.934Z,11.86
2023-05-14T03:08:50.679Z,11.87
2023-05-14T03:11:53.314Z,11.95
2023-05-14T03:14:55.983Z,11.85
2023-05-14T03:17:58.832Z,11.86
2023-05-14T03:21:01.455Z,11.88
2023-05-14T03:24:03.984Z,11.90
2023-05-14T03:27:06.597Z,11.84
2023-05-14T03:30:09.735Z,11.88
2023-05-14T03:33:12.566Z,11.84
2023-05-14T03:36:14.933Z,11.91
2023-05-14T03:39:20.303Z,11.99
2023-05-14T03:42:22.730Z,11.96
2023-05-14T03:45:25.189Z,11.86
2023-05-14T03:48:27.811Z,11.92
2023-05-14T03:51:31.865Z,11.95
2023-05-14T03:54:34.423Z,11.84
2023-05-14T03:57:37.046Z,11.91
2023-05-14T04:00:41.313Z,11.92
2023-05-14T04:03:44.160Z,11.97
2023-05-14T04:06:46.722Z,11.94
2023-05-14T04:09:49.312Z,12.02
2023-05-14T04:12:51.913Z,12.05
2023-05-14T04:15:54.482Z,11.99
2023-05-14T04:18:58.117Z,12.05
2023-05-14T04:22:00.738Z,12.06
2023-05-14T04:25:03.337Z,12.09
2023-05-14T04:28:06.302Z,12.13
2023-05-14T04:31:08.711Z,12.05
2023-05-14T04:34:11.173Z,11.99
2023-05-14T04:37:14.105Z,11.96
2023-05-14T04:40:21.946Z,11.98
2023-05-14T04:43:25.648Z,11.94
2023-05-14T04:46:28.877Z,11.96
2023-05-14T04:49:32.029Z,11.95
2023-05-14T04:52:34.560Z,11.93
2023-05-14T04:55:37.064Z,11.92
2023-05-14T04:58:39.567Z,11.95
2023-05-14T05:01:42.007Z,12.00
2023-05-14T05:04:44.658Z,12.00
2023-05-14T05:07:47.096Z,12.03
2023-05-14T05:10:49.551Z,12.03
2023-05-14T05:13:51.963Z,12.05
2023-05-14T05:16:54.848Z,12.09
2023-05-14T05:19:57.393Z,12.18
2023-05-14T05:22:59.949Z,12.22
2023-05-14T05:26:02.608Z,12.15
2023-05-14T05:29:05.587Z,12.10
2023-05-14T05:32:08.269Z,12.16
2023-05-14T05:35:10.769Z,12.25
2023-05-14T05:38:15.103Z,12.23
2023-05-14T05:41:17.617Z,12.18
2023-05-14T05:44:21.374Z,12.13
2023-05-14T05:47:24.043Z,12.18
2023-05-14T05:50:26.566Z,12.22
2023-05-14T05:53:29.097Z,12.21
2023-05-14T05:56:31.920Z,12.25
2023-05-14T05:59:34.433Z,12.22
2023-05-14T06:02:36.902Z,12.21
2023-05-14T06:05:39.761Z,12.26
2023-05-14T06:08:42.318Z,12.27
2023-05-14T06:11:44.851Z,12.33
2023-05-14T06:14:47.320Z,12.38
2023-05-14T06:17:49.816Z,12.38
2023-05-14T06:20:52.240Z,12.32
2023-05-14T06:23:54.706Z,12.37
2023-05-14T06:26:59.169Z,12.45
2023-05-14T06:30:01.612Z,12.47
2023-05-14T06:33:04.225Z,12.53
2023-05-14T06:36:07.881Z,12.49
2023-05-14T06:39:10.386Z,12.53
2023-05-14T06:42:13.062Z,12.55
2023-05-14T06:45:16.371Z,12.60
2023-05-14T06:48:19.360Z,12.64
2023-05-14T06:51:22.189Z,12.69
2023-05-14T06:54:24.850Z,12.75
2023-05-14T06:57:27.492Z,12.90
2023-05-14T07:00:30.679Z,12.98
2023-05-14T07:03:33.177Z,13.03
2023-05-14T07:06:35.758Z,13.15
2023-05-14T07:09:38.467Z,13.30
2023-05-14T07:12:40.942Z,13.31
2023-05-14T07:15:43.932Z,13.36
2023-05-14T07:18:46.574Z,13.46
2023-05-14T07:21:51.730Z,13.60
2023-05-14T07:24:54.251Z,13.61
2023-05-14T07:27:56.725Z,13.71
2023-05-14T07:30:59.427Z,13.74
2023-05-14T07:34:01.904Z,13.89
2023-05-14T07:37:04.538Z,13.94
2023-05-14T07:40:07.613Z,14.04
2023-05-14T07:43:10.680Z,14.25
2023-05-14T07:46:12.862Z,14.52
2023-05-14T07:49:15.836Z,14.55
2023-05-14T07:52:18.249Z,14.59
2023-05-14T07:55:21.034Z,14.56
2023-05-14T07:58:23.729Z,14.65
2023-05-14T08:01:26.482Z,14.67
2023-05-14T08:04:29.091Z,14.72
2023-05-14T08:07:34.497Z,14.77
2023-05-14T08:10:37.004Z,14.69
2023-05-14T08:13:39.765Z,14.66
2023-05-14T08:16:42.308Z,14.72
2023-05-14T08:19:44.880Z,14.67
2023-05-14T08:22:47.377Z,14.79
2023-05-14T08:25:49.807Z,14.74
2023-05-14T08:28:56.200Z,14.84
2023-05-14T08:32:00.311Z,14.89
2023-05-14T08:35:06.906Z,14.93
2023-05-14T08:38:09.402Z,15.02
2023-05-14T08:41:12.117Z,15.00
2023-05-14T08:44:36.718Z,14.87
2023-05-14T08:47:39.391Z,14.92
2023-05-14T08:50:41.811Z,14.86
2023-05-14T08:53:44.722Z,14.91
2023-05-14T08:56:47.069Z,14.90
2023-05-14T08:59:49.398Z,14.88
2023-05-14T09:02:51.911Z,14.77
2023-05-14T09:05:54.381Z,14.69
2023-05-14T09:08:57.147Z,14.77
2023-05-14T09:11:59.627Z,14.72
2023-05-14T09:15:02.216Z,14.63
2023-05-14T09:18:05.960Z,14.58
2023-05-14T09:21:08.475Z,14.49
2023-05-14T09:24:13.722Z,14.40
2023-05-14T09:27:20.041Z,14.39
2023-05-14T09:30:22.785Z,14.33
2023-05-14T09:33:28.791Z,14.31
2023-05-14T09:36:31.886Z,14.26
2023-05-14T09:39:36.242Z,14.26
2023-05-14T09:42:38.829Z,14.23
2023-05-14T09:45:43.760Z,14.17
2023-05-14T09:48:46.362Z,14.25
2023-05-14T09:51:49.188Z,14.31
2023-05-14T09:54:52.493Z,14.29
2023-05-14T09:57:54.965Z,14.25
2023-05-14T10:00:58.058Z,14.30
2023-05-14T10:04:01.465Z,14.40
2023-05-14T10:07:04.136Z,14.55
2023-05-14T10:10:07.814Z,14.50
2023-05-14T10:13:14.854Z,14.61
2023-05-14T10:16:20.787Z,14.72
2023-05-14T10:19:24.379Z,14.88
2023-05-14T10:22:31.052Z,14.98
2023-05-14T10:25:34.973Z,14.96
2023-05-14T10:28:37.561Z,14.92
2023-05-14T10:31:58.124Z,14.99
2023-05-14T10:35:01.769Z,14.84
2023-05-14T10:38:08.628Z,14.80
2023-05-14T10:41:18.156Z,14.74
2023-05-14T10:44:20.624Z,14.70
2023-05-14T10:47:23.086Z,14.75
2023-05-14T10:50:25.772Z,14.64
2023-05-14T10:53:37.876Z,14.75
2023-05-14T10:56:40.247Z,14.73
2023-05-14T10:59:43.456Z,14.69
2023-05-14T11:02:46.994Z,14.66
2023-05-14T11:05:49.798Z,14.65
2023-05-14T11:08:52.940Z,14.60
2023-05-14T11:11:55.540Z,14.63
2023-05-14T11:14:59.396Z,14.46
2023-05-14T11:18:02.259Z,14.39
2023-05-14T11:21:05.136Z,14.34
2023-05-14T11:24:07.894Z,14.28
2023-05-14T11:27:10.999Z,14.28
2023-05-14T11:30:18.126Z,14.25
2023-05-14T11:33:21.067Z,14.37
2023-05-14T11:36:23.553Z,14.32
2023-05-14T11:39:26.017Z,14.32
2023-05-14T11:42:28.510Z,14.25
2023-05-14T11:45:33.208Z,14.22
2023-05-14T11:48:35.803Z,14.16
2023-05-14T11:51:38.180Z,14.15
2023-05-14T11:54:41.312Z,14.11
2023-05-14T11:57:44.060Z,14.16
2023-05-14T12:00:46.745Z,14.21
2023-05-14T12:03:49.320Z,14.12
2023-05-14T12:06:52.262Z,14.21
2023-05-14T12:09:54.699Z,14.18
2023-05-14T12:12:57.146Z,14.16
2023-05-14T12:16:02.064Z,14.22
2023-05-14T12:19:04.745Z,14.21
2023-05-14T12:22:07.695Z,14.00
2023-05-14T12:25:16.015Z,14.00
2023-05-14T12:28:18.852Z,14.02
2023-05-14T12:31:27.825Z,13.98
2023-05-14T12:34:30.145Z,13.83
2023-05-14T12:37:33.353Z,13.83
2023-05-14T12:40:36.553Z,13.86
2023-05-14T12:43:42.749Z,13.80
2023-05-14T12:46:45.393Z,13.78
2023-05-14T12:49:48.516Z,13.81
2023-05-14T12:52:50.981Z,13.91
2023-05-14T12:55:53.759Z,13.96
2023-05-14T12:58:56.585Z,13.86
2023-05-14T13:01:58.975Z,13.83
2023-05-14T13:05:03.817Z,13.74
2023-05-14T13:08:06.338Z,13.80
2023-05-14T13:11:08.959Z,13.81
2023-05-14T13:14:14.235Z,13.79
2023-05-14T13:17:16.772Z,13.87
2023-05-14T13:20:19.371Z,13.74
2023-05-14T13:23:21.890Z,13.60
2023-05-14T13:26:26.616Z,13.69
2023-05-14T13:29:31.787Z,13.71
2023-05-14T13:32:34.443Z,13.71
2023-05-14T13:35:36.967Z,13.67
2023-05-14T13:38:39.390Z,13.67
2023-05-14T13:41:42.117Z,13.58
2023-05-14T13:44:44.985Z,13.62
2023-05-14T13:47:48.780Z,13.57
2023-05-14T13:50:52.263Z,13.59
2023-05-14T13:57:02.094Z,13.49
2023-05-14T14:00:05.470Z,13.48
2023-05-14T14:03:08.347Z,13.42
2023-05-14T14:06:10.905Z,13.38
2023-05-14T14:09:13.905Z,13.31
2023-05-14T14:12:16.421Z,13.36
2023-05-14T14:15:19.087Z,13.39
2023-05-14T14:18:21.623Z,13.38
2023-05-14T14:21:24.177Z,13.34
2023-05-14T14:24:26.595Z,13.41
2023-05-14T14:27:31.214Z,13.28
2023-05-14T14:30:33.765Z,13.35
2023-05-14T14:33:36.167Z,13.29
2023-05-14T14:36:38.602Z,13.31
2023-05-14T14:39:41.019Z,13.25
2023-05-14T14:42:43.575Z,13.26
2023-05-14T14:45:48.882Z,13.28
2023-05-14T14:48:51.753Z,13.15
2023-05-14T14:51:54.444Z,13.12
2023-05-14T14:54:57.060Z,13.06
2023-05-14T14:57:59.443Z,13.00
2023-05-14T15:01:02.149Z,13.04
2023-05-14T15:04:04.804Z,12.88
2023-05-14T15:07:07.264Z,12.89
2023-05-14T15:10:09.923Z,12.84
2023-05-14T15:13:12.615Z,12.82
2023-05-14T15:16:15.676Z,12.89
2023-05-14T15:19:18.132Z,12.88
2023-05-14T15:22:20.508Z,12.85
2023-05-14T15:25:23.737Z,12.85
2023-05-14T15:28:26.482Z,12.81
2023-05-14T15:31:29.160Z,12.70
2023-05-14T15:34:33.011Z,12.70
2023-05-14T15:37:40.382Z,12.64
2023-05-14T15:40:42.936Z,12.68
2023-05-14T15:43:45.475Z,12.59
2023-05-14T15:46:47.998Z,12.60
2023-05-14T15:49:50.561Z,12.65
2023-05-14T15:52:55.253Z,12.64
2023-05-14T15:55:57.630Z,12.53
2023-05-14T15:59:00.045Z,12.54
2023-05-14T16:02:02.553Z,12.54
2023-05-14T16:05:05.751Z,12.58
2023-05-14T16:08:08.336Z,12.61
2023-05-14T16:11:10.686Z,12.51
2023-05-14T16:14:13.119Z,12.55
2023-05-14T16:17:15.610Z,12.49
2023-05-14T16:20:18.200Z,12.60
2023-05-14T16:23:20.578Z,12.58
2023-05-14T16:26:23.284Z,12.55
2023-05-14T16:29:25.715Z,12.59
2023-05-14T16:32:28.346Z,12.61
2023-05-14T16:35:30.905Z,12.51
2023-05-14T16:38:33.486Z,12.58
2023-05-14T16:41:36.229Z,12.54
2023-05-14T16:44:38.973Z,12.56
2023-05-14T16:47:41.546Z,12.58
2023-05-14T16:50:44.472Z,12.59
2023-05-14T16:53:46.938Z,12.56
2023-05-14T16:56:53.607Z,12.59
2023-05-14T16:59:56.906Z,12.59
2023-05-14T17:03:02.472Z,12.56
2023-05-14T17:06:05.116Z,12.56
2023-05-14T17:09:07.787Z,12.51
2023-05-14T17:12:11.242Z,12.52
2023-05-14T17:15:14.129Z,12.52
2023-05-14T17:18:16.662Z,12.54
2023-05-14T17:21:22.258Z,12.50
2023-05-14T17:24:24.935Z,12.52
2023-05-14T17:27:29.326Z,12.47
2023-05-14T17:30:31.802Z,12.37
2023-05-14T17:33:34.770Z,12.45
2023-05-14T17:36:37.302Z,12.45
2023-05-14T17:39:39.698Z,12.45
2023-05-14T17:42:42.190Z,12.46
2023-05-14T17:45:53.995Z,12.44
2023-05-14T17:48:58.449Z,12.41
2023-05-14T17:52:00.976Z,12.47
2023-05-14T17:55:04.108Z,12.47
2023-05-14T17:58:06.312Z,12.54
2023-05-14T18:01:08.807Z,12.45
2023-05-14T18:04:11.488Z,12.51
2023-05-14T18:07:14.121Z,12.52
2023-05-14T18:10:16.536Z,12.53
2023-05-14T18:13:19.002Z,12.48
2023-05-14T18:16:21.840Z,12.51
2023-05-14T18:19:25.074Z,12.45
2023-05-14T18:22:27.406Z,12.53
2023-05-14T18:25:29.917Z,12.48
2023-05-14T18:28:32.273Z,12.41
2023-05-14T18:31:35.031Z,12.47
2023-05-14T18:34:37.607Z,12.49
2023-05-14T18:37:40.110Z,12.49
2023-05-14T18:40:42.720Z,12.53
2023-05-14T18:43:45.359Z,12.52
2023-05-14T18:46:47.808Z,12.52
2023-05-14T18:49:54.887Z,12.50
2023-05-14T18:52:57.573Z,12.52
2023-05-14T18:56:00.251Z,12.46
2023-05-14T18:59:02.848Z,12.48
2023-05-14T19:02:05.756Z,12.53
2023-05-14T19:05:08.498Z,12.58
2023-05-14T19:08:11.092Z,12.57
2023-05-14T19:11:14.936Z,12.61
2023-05-14T19:14:17.329Z,12.57
2023-05-14T19:17:20.611Z,12.57
2023-05-14T19:20:23.295Z,12.64
2023-05-14T19:23:25.774Z,12.66
2023-05-14T19:26:28.246Z,12.66
2023-05-14T19:29:32.641Z,12.67
2023-05-14T19:32:37.411Z,12.64
2023-05-14T19:35:39.972Z,12.65
2023-05-14T19:38:42.734Z,12.67
2023-05-14T19:41:45.332Z,12.68
2023-05-14T19:44:47.768Z,12.66
2023-05-14T19:47:50.286Z,12.66
2023-05-14T19:50:52.830Z,12.74
2023-05-14T19:53:55.356Z,12.68
2023-05-14T19:56:57.831Z,12.70
2023-05-14T20:00:00.381Z,12.72
2023-05-14T20:03:03.831Z,12.68
2023-05-14T20:06:07.415Z,12.65
2023-05-14T20:09:10.204Z,12.77
2023-05-14T20:12:13.339Z,12.73
2023-05-14T20:15:15.792Z,12.73
2023-05-14T20:18:18.335Z,12.72
2023-05-14T20:21:20.730Z,12.73
2023-05-14T20:24:23.235Z,12.76
2023-05-14T20:27:25.760Z,12.72
2023-05-14T20:30:28.498Z,12.78
2023-05-14T20:33:30.961Z,12.75
2023-05-14T20:36:33.486Z,12.77
2023-05-14T20:39:36.094Z,12.78
2023-05-14T20:42:38.775Z,12.89
2023-05-14T20:45:41.776Z,12.84
2023-05-14T20:48:44.291Z,12.84
2023-05-14T20:51:46.730Z,12.82
2023-05-14T20:54:49.210Z,12.80
2023-05-14T20:57:53.655Z,12.82
2023-05-14T21:00:57.977Z,12.80
2023-05-14T21:04:01.250Z,12.74
2023-05-14T21:07:04.495Z,12.78
2023-05-14T21:10:07.880Z,12.78
2023-05-14T21:13:10.297Z,12.80
2023-05-14T21:16:12.875Z,12.74
2023-05-14T21:19:15.743Z,12.74
2023-05-14T21:22:18.117Z,12.75
2023-05-14T21:25:20.750Z,12.77
2023-05-14T21:28:23.192Z,12.74
2023-05-14T21:31:25.638Z,12.71
2023-05-14T21:34:29.788Z,12.75
2023-05-14T21:37:33.807Z,12.75
2023-05-14T21:40:36.652Z,12.78
2023-05-14T21:43:40.823Z,12.75
2023-05-14T21:46:43.344Z,12.76
2023-05-14T21:49:45.746Z,12.76
2023-05-14T21:52:48.200Z,12.80
2023-05-14T21:55:50.646Z,12.79
2023-05-14T21:58:55.548Z,12.79
2023-05-14T22:02:06.735Z,12.74
2023-05-14T22:05:10.061Z,12.78
2023-05-14T22:08:13.346Z,12.72
2023-05-14T22:11:18.822Z,12.74
2023-05-14T22:14:21.433Z,12.74
2023-05-14T22:17:23.907Z,12.71
2023-05-14T22:20:26.400Z,12.77
2023-05-14T22:23:28.874Z,12.80
2023-05-14T22:26:31.491Z,12.79
2023-05-14T22:29:34.588Z,12.81
2023-05-14T22:32:38.403Z,12.81
2023-05-14T22:35:41.063Z,12.80
2023-05-14T22:38:43.925Z,12.79
2023-05-14T22:41:46.662Z,12.82
2023-05-14T22:44:49.479Z,12.83
2023-05-14T22:47:51.915Z,12.84
2023-05-14T22:50:54.428Z,12.84
2023-05-14T22:53:57.167Z,12.87
2023-05-14T22:56:59.588Z,12.89
2023-05-14T23:00:02.295Z,12.86
2023-05-14T23:03:05.064Z,12.88
2023-05-14T23:06:07.845Z,12.89
2023-05-14T23:09:10.682Z,12.86
2023-05-14T23:12:12.953Z,12.81
2023-05-14T23:15:15.900Z,12.75
2023-05-14T23:18:19.022Z,12.85
2023-05-14T23:21:21.654Z,12.96
2023-05-14T23:24:24.132Z,12.89
2023-05-14T23:27:27.290Z,12.95
2023-05-14T23:30:29.899Z,12.95
2023-05-14T23:33:32.429Z,13.02
2023-05-14T23:36:35.786Z,12.97
2023-05-14T23:39:38.387Z,13.02
2023-05-14T23:42:41.325Z,13.01
2023-05-14T23:45:43.707Z,12.95
2023-05-14T23:48:46.230Z,13.03
2023-05-14T23:51:48.678Z,13.04
2023-05-14T23:54:51.115Z,13.01
2023-05-14T23:57:53.621Z,12.94
